Livonia, New York
Current Conditions -  °F | °C
As of 12:54 PM on Thursday 30 Oct 2014 (Local Time) from KDSV Reporting Station
Overcast Overcast  
Wind Chill: 42°   Ceiling: 3600
Heat Index: 46°   Visibility: 10mi
Dew Point: 35°   Wind: 7mph
Humidity: 66%   Direction: 340°NNW
Pressure: 30.07"   Gusts: NA
Location:  42.82°N, 77.67°W
Report Text: KDSV 301654Z AUTO 34006KT 10SM OVC036 08/02 A3007 RMK AO2 SLP195 T00780017
Loading
Personal Weather Stations






























Interactive Weather Map New forecast layout! Learn more

10-Day Weather Forecast

Advertisements
Track Severe Weather on mobile